Nearby METAR Reports

 

EGGP - Liverpool Airpor, United Kingdom
Distance from station: ESE 7mi, 11km
Updated: 08/05/2021 23:20
Light rain, Mostly cloudy
Light rain, Mostly cloudy
 Wind from SSE
Wind: SSE 7 mph , 11 km/h
Temperature: 15°C
Dew Point: 14°C
Humidity: 94%
Barometer: 994 hPa
Summary: Light rain
Clouds: Mostly cloudy
Visibility: 5 miles , 8 km
Cloud details: Partly cloudy 183 m
Mostly cloudy 335 m
2021/05/08 22:20 EGGP 082220Z 16006KT 130V200 8000 -RA SCT006 BKN011 15/14 Q0994
EGNR - Hawarden (aut), United Kingdom
Distance from station: S 13mi, 20km
Updated: 08/05/2021 17:50
NOT Current
Light rain, Showers, Mostly cloudy
Light rain, Showers, Mostly cloudy
 Wind from SW
Wind: SW 5 mph , 7 km/h
Temperature: 14°C
Dew Point: 11°C
Humidity: 82%
Barometer: 996 hPa
Summary: Light rain, Showers
Clouds: Mostly cloudy
Visibility: 6 miles , 10 km
Cloud details: Few Clouds 518 m
Mostly cloudy 732 m
2021/05/08 16:50 EGNR 081650Z 23004KT 170V260 9999 -SHRA FEW017 BKN024 14/11 Q0996
EGOW - Woodvale Raf, United Kingdom
Distance from station: N 16mi, 26km
Updated: 05/05/2021 14:50
NOT Current
Few Clouds
Few Clouds
 Wind from WNW
Wind: WNW 15 mph , 24 km/h
Temperature: 10°C
Wind Chill: 7°C
Dew Point: 2°C
Humidity: 58%
Barometer: 1009 hPa
Clouds: Few Clouds
Visibility: 6 miles , 10 km
Cloud details: Few Clouds 610 m
2021/05/05 13:50 EGOW 051350Z 30013KT 9999 FEW020CB 10/02 Q1009 RMK BLU
 
EGNO - Wharton, United Kingdom
Distance from station: N 28mi, 45km
Updated: 07/05/2021 12:50
NOT Current
Partly cloudy
Partly cloudy
 Wind from W
Wind: W 13 mph , 20 km/h
Temperature: 10°C
Wind Chill: 7°C
Dew Point: 4°C
Humidity: 67%
Barometer: 1015 hPa
Clouds: Partly cloudy
Visibility: 6 miles , 10 km
Cloud details: Partly cloudy 823 m
2021/05/07 11:50 EGNO 071150Z 27011KT 240V320 9999 SCT027TCU 10/04 Q1015
EGNH - Blackpool Airpor, United Kingdom
Distance from station: N 29mi, 47km
Updated: 08/05/2021 20:50
NOT Current
Partly cloudy
Partly cloudy
 Wind from SSW
Wind: SSW 8 mph , 13 km/h
Temperature: 12°C
Dew Point: 10°C
Humidity: 88%
Barometer: 994 hPa
Clouds: Partly cloudy
Visibility: 6 miles , 10 km
Cloud details: Partly cloudy 671 m
2021/05/08 19:50 EGNH 081950Z 21007KT 9999 SCT022 12/10 Q0994
EGCC - Manchester Intl, United Kingdom
Distance from station: E 31mi, 49km
Updated: 08/05/2021 23:20
Light drizzle, Overcast
Light drizzle, Overcast
 Wind from S
Wind: S 7 mph , 11 km/h
Temperature: 13°C
Dew Point: 12°C
Humidity: 94%
Barometer: 994 hPa
Summary: Light Drizzle
Clouds: Overcast
Visibility: 3 miles , 5 km
Cloud details: Mostly cloudy 244 m
Mostly cloudy 732 m
Overcast 945 m
2021/05/08 22:20 EGCC 082220Z AUTO 18006KT 120V220 5000 -DZ BKN008 BKN024 OVC031 13/12 Q0994 TEMPO BKN020
 
EGOS - Shawbury Raf, United Kingdom
Distance from station: SSE 40mi, 65km
Updated: 08/05/2021 22:50
Light rain, Mostly cloudy
Light rain, Mostly cloudy
 Wind from S
Wind: S 16 mph , 26 km/h
Temperature: 13°C
Dew Point: 12°C
Humidity: 94%
Barometer: 994 hPa
Summary: Light rain
Clouds: Mostly cloudy
Visibility: 6 miles , 9 km
Cloud details: Few Clouds 396 m
Mostly cloudy 1311 m
2021/05/08 21:50 EGOS 082150Z AUTO 17014KT 9000 -RA FEW013/// BKN043/// 13/12 Q0994